sensor_id;sensor_type;location;lat;lon;timestamp;pressure;altitude;pressure_sealevel;temperature;humidity
34241;BME280;20503;50.200;19.508;2023-03-20T00:03:43;101616.33;;;8.51;60.21
34241;BME280;20503;50.200;19.508;2023-03-20T00:08:46;101611.03;;;8.50;60.04
34241;BME280;20503;50.200;19.508;2023-03-20T00:13:49;101608.47;;;8.48;60.18
34241;BME280;20503;50.200;19.508;2023-03-20T00:18:57;101610.87;;;8.43;60.37
34241;BME280;20503;50.200;19.508;2023-03-20T00:24:05;101601.86;;;8.35;60.49
34241;BME280;20503;50.200;19.508;2023-03-20T00:29:23;101593.52;;;8.36;60.80
34241;BME280;20503;50.200;19.508;2023-03-20T00:34:28;101601.35;;;8.31;60.70
34241;BME280;20503;50.200;19.508;2023-03-20T00:39:32;101593.71;;;8.27;60.83
34241;BME280;20503;50.200;19.508;2023-03-20T00:44:48;101595.25;;;8.21;61.14
34241;BME280;20503;50.200;19.508;2023-03-20T00:49:48;101568.65;;;8.07;61.03
34241;BME280;20503;50.200;19.508;2023-03-20T00:54:52;101596.76;;;8.32;60.51
34241;BME280;20503;50.200;19.508;2023-03-20T01:00:16;101589.09;;;8.27;60.91
34241;BME280;20503;50.200;19.508;2023-03-20T01:05:12;101585.17;;;8.22;61.29
34241;BME280;20503;50.200;19.508;2023-03-20T01:10:16;101594.38;;;8.21;61.33
34241;BME280;20503;50.200;19.508;2023-03-20T01:15:28;101591.47;;;8.14;61.53
34241;BME280;20503;50.200;19.508;2023-03-20T01:20:33;101585.85;;;8.16;61.46
34241;BME280;20503;50.200;19.508;2023-03-20T01:25:40;101582.29;;;8.07;61.92
34241;BME280;20503;50.200;19.508;2023-03-20T01:30:49;101582.44;;;8.06;62.00
34241;BME280;20503;50.200;19.508;2023-03-20T01:35:56;101583.63;;;8.11;61.98
34241;BME280;20503;50.200;19.508;2023-03-20T01:41:13;101587.90;;;8.14;62.00
34241;BME280;20503;50.200;19.508;2023-03-20T01:46:25;101586.00;;;8.14;61.83
34241;BME280;20503;50.200;19.508;2023-03-20T01:51:30;101587.23;;;8.12;62.21
34241;BME280;20503;50.200;19.508;2023-03-20T01:57:28;101585.69;;;8.09;62.20
34241;BME280;20503;50.200;19.508;2023-03-20T02:01:48;101588.73;;;8.14;62.03
34241;BME280;20503;50.200;19.508;2023-03-20T02:06:49;101581.58;;;8.13;62.15
34241;BME280;20503;50.200;19.508;2023-03-20T02:11:52;101593.35;;;8.14;62.66
34241;BME280;20503;50.200;19.508;2023-03-20T02:16:59;101594.74;;;8.10;62.05
34241;BME280;20503;50.200;19.508;2023-03-20T02:43:14;101579.05;;;8.28;61.54
34241;BME280;20503;50.200;19.508;2023-03-20T03:04:08;101555.54;;;8.19;60.67
34241;BME280;20503;50.200;19.508;2023-03-20T03:09:28;101578.02;;;8.21;61.34
34241;BME280;20503;50.200;19.508;2023-03-20T03:19:44;101573.59;;;8.28;60.78
34241;BME280;20503;50.200;19.508;2023-03-20T03:24:50;101574.27;;;8.30;60.86
34241;BME280;20503;50.200;19.508;2023-03-20T03:30:00;101576.12;;;8.29;61.00
34241;BME280;20503;50.200;19.508;2023-03-20T03:35:04;101572.73;;;8.27;60.44
34241;BME280;20503;50.200;19.508;2023-03-20T03:40:15;101565.05;;;8.23;60.81
34241;BME280;20503;50.200;19.508;2023-03-20T03:45:25;101565.05;;;8.23;60.97
34241;BME280;20503;50.200;19.508;2023-03-20T03:50:35;101559.28;;;8.26;60.67
34241;BME280;20503;50.200;19.508;2023-03-20T03:55:45;101563.86;;;8.25;60.91
34241;BME280;20503;50.200;19.508;2023-03-20T04:00:48;101565.92;;;8.23;60.60
34241;BME280;20503;50.200;19.508;2023-03-20T04:05:53;101562.02;;;8.18;60.99
34241;BME280;20503;50.200;19.508;2023-03-20T04:10:56;101568.81;;;8.14;61.38
34241;BME280;20503;50.200;19.508;2023-03-20T04:15:58;101564.06;;;8.00;61.99
34241;BME280;20503;50.200;19.508;2023-03-20T04:21:00;101566.28;;;8.04;61.97
34241;BME280;20503;50.200;19.508;2023-03-20T04:26:04;101559.31;;;7.94;62.25
34241;BME280;20503;50.200;19.508;2023-03-20T04:31:06;101565.44;;;7.96;62.33
34241;BME280;20503;50.200;19.508;2023-03-20T04:36:09;101565.11;;;7.91;62.48
34241;BME280;20503;50.200;19.508;2023-03-20T04:41:13;101559.98;;;7.88;62.66
34241;BME280;20503;50.200;19.508;2023-03-20T04:46:16;101569.18;;;7.87;62.83
34241;BME280;20503;50.200;19.508;2023-03-20T04:51:17;101563.73;;;7.87;62.82
34241;BME280;20503;50.200;19.508;2023-03-20T04:56:18;101574.82;;;7.85;63.19
34241;BME280;20503;50.200;19.508;2023-03-20T05:01:19;101580.44;;;7.84;63.38
34241;BME280;20503;50.200;19.508;2023-03-20T05:06:20;101587.93;;;7.82;63.64
34241;BME280;20503;50.200;19.508;2023-03-20T05:11:28;101595.44;;;7.80;63.67
34241;BME280;20503;50.200;19.508;2023-03-20T05:16:36;101591.52;;;7.74;64.30
34241;BME280;20503;50.200;19.508;2023-03-20T05:21:44;101592.70;;;7.72;64.09
34241;BME280;20503;50.200;19.508;2023-03-20T05:26:51;101598.31;;;7.62;64.58
34241;BME280;20503;50.200;19.508;2023-03-20T05:31:59;101601.55;;;7.66;65.19
34241;BME280;20503;50.200;19.508;2023-03-20T05:37:07;101600.88;;;7.64;64.49
34241;BME280;20503;50.200;19.508;2023-03-20T05:42:25;101600.69;;;7.65;64.91
34241;BME280;20503;50.200;19.508;2023-03-20T05:47:27;101595.59;;;7.78;64.66
34241;BME280;20503;50.200;19.508;2023-03-20T05:52:35;101606.14;;;7.97;64.14
34241;BME280;20503;50.200;19.508;2023-03-20T05:57:48;101610.56;;;8.30;63.75
34241;BME280;20503;50.200;19.508;2023-03-20T06:02:56;101599.61;;;8.46;63.57
34241;BME280;20503;50.200;19.508;2023-03-20T06:07:58;101602.80;;;8.66;62.06
34241;BME280;20503;50.200;19.508;2023-03-20T06:13:16;101616.73;;;9.17;61.15
34241;BME280;20503;50.200;19.508;2023-03-20T06:18:18;101625.94;;;9.46;60.56
34241;BME280;20503;50.200;19.508;2023-03-20T06:23:20;101618.54;;;9.77;59.86
34241;BME280;20503;50.200;19.508;2023-03-20T06:28:25;101624.05;;;9.92;58.97
34241;BME280;20503;50.200;19.508;2023-03-20T06:33:45;101631.17;;;10.01;58.89
34241;BME280;20503;50.200;19.508;2023-03-20T06:38:55;101636.59;;;10.75;57.88
34241;BME280;20503;50.200;19.508;2023-03-20T06:43:57;101634.22;;;11.15;57.03
34241;BME280;20503;50.200;19.508;2023-03-20T06:49:04;101622.80;;;10.97;58.45
34241;BME280;20503;50.200;19.508;2023-03-20T06:54:14;101624.20;;;11.08;58.73
34241;BME280;20503;50.200;19.508;2023-03-20T06:59:15;101633.16;;;11.30;58.80
34241;BME280;20503;50.200;19.508;2023-03-20T07:04:20;101624.29;;;11.14;59.81
34241;BME280;20503;50.200;19.508;2023-03-20T07:09:28;101626.77;;;11.09;60.45
34241;BME280;20503;50.200;19.508;2023-03-20T07:14:35;101635.82;;;11.24;60.76
34241;BME280;20503;50.200;19.508;2023-03-20T07:19:43;101648.09;;;11.28;60.94
34241;BME280;20503;50.200;19.508;2023-03-20T07:24:57;101648.95;;;11.28;61.57
34241;BME280;20503;50.200;19.508;2023-03-20T07:30:00;101657.34;;;11.56;61.08
34241;BME280;20503;50.200;19.508;2023-03-20T07:35:07;101656.05;;;11.94;59.32
34241;BME280;20503;50.200;19.508;2023-03-20T07:40:16;101653.09;;;14.05;55.51
34241;BME280;20503;50.200;19.508;2023-03-20T07:45:27;101665.25;;;13.57;57.22
34241;BME280;20503;50.200;19.508;2023-03-20T07:50:31;101674.27;;;12.98;58.73
34241;BME280;20503;50.200;19.508;2023-03-20T07:55:39;101673.04;;;12.80;60.64
34241;BME280;20503;50.200;19.508;2023-03-20T08:00:55;101670.20;;;12.39;61.84
34241;BME280;20503;50.200;19.508;2023-03-20T08:05:56;101653.29;;;12.15;63.48
34241;BME280;20503;50.200;19.508;2023-03-20T08:11:03;101664.15;;;12.23;63.57
34241;BME280;20503;50.200;19.508;2023-03-20T08:19:36;101665.98;;;12.64;64.10
34241;BME280;20503;50.200;19.508;2023-03-20T08:24:44;101664.63;;;13.15;63.78
34241;BME280;20503;50.200;19.508;2023-03-20T08:29:52;101672.17;;;13.40;64.69
34241;BME280;20503;50.200;19.508;2023-03-20T08:35:00;101674.97;;;13.53;63.31
34241;BME280;20503;50.200;19.508;2023-03-20T08:40:08;101678.50;;;13.41;62.00
34241;BME280;20503;50.200;19.508;2023-03-20T08:45:15;101667.41;;;13.68;59.90
34241;BME280;20503;50.200;19.508;2023-03-20T08:50:23;101675.95;;;13.93;60.69
34241;BME280;20503;50.200;19.508;2023-03-20T08:55:31;101670.43;;;13.99;60.72
34241;BME280;20503;50.200;19.508;2023-03-20T09:00:39;101668.54;;;14.00;60.44
34241;BME280;20503;50.200;19.508;2023-03-20T09:05:48;101665.02;;;13.52;60.72
34241;BME280;20503;50.200;19.508;2023-03-20T09:10:55;101675.43;;;12.89;62.98
34241;BME280;20503;50.200;19.508;2023-03-20T09:16:04;101669.24;;;14.21;60.05
34241;BME280;20503;50.200;19.508;2023-03-20T09:21:10;101668.84;;;15.52;56.33
34241;BME280;20503;50.200;19.508;2023-03-20T09:26:18;101668.77;;;15.08;56.38
34241;BME280;20503;50.200;19.508;2023-03-20T09:31:26;101664.75;;;14.14;60.03
34241;BME280;20503;50.200;19.508;2023-03-20T09:36:34;101662.04;;;14.59;61.90
34241;BME280;20503;50.200;19.508;2023-03-20T09:41:46;101664.80;;;14.66;59.39
34241;BME280;20503;50.200;19.508;2023-03-20T09:52:20;101665.05;;;13.65;64.46
34241;BME280;20503;50.200;19.508;2023-03-20T09:57:28;101672.08;;;13.74;61.78
34241;BME280;20503;50.200;19.508;2023-03-20T10:07:46;101664.29;;;13.97;61.22
34241;BME280;20503;50.200;19.508;2023-03-20T10:12:58;101673.29;;;14.51;60.42
34241;BME280;20503;50.200;19.508;2023-03-20T10:28:42;101662.98;;;13.80;67.14
34241;BME280;20503;50.200;19.508;2023-03-20T10:33:55;101661.20;;;13.47;68.40
34241;BME280;20503;50.200;19.508;2023-03-20T10:44:25;101646.36;;;14.66;66.42
34241;BME280;20503;50.200;19.508;2023-03-20T10:49:33;101647.99;;;14.93;66.01
34241;BME280;20503;50.200;19.508;2023-03-20T10:54:40;101649.46;;;15.65;63.96
34241;BME280;20503;50.200;19.508;2023-03-20T10:59:51;101646.60;;;15.41;64.68
34241;BME280;20503;50.200;19.508;2023-03-20T11:04:55;101635.26;;;14.99;65.80
34241;BME280;20503;50.200;19.508;2023-03-20T11:10:12;101643.33;;;15.00;65.96
34241;BME280;20503;50.200;19.508;2023-03-20T11:26:42;101634.55;;;13.60;74.87
34241;BME280;20503;50.200;19.508;2023-03-20T11:31:39;101629.45;;;13.51;76.45
34241;BME280;20503;50.200;19.508;2023-03-20T11:36:52;101627.94;;;13.42;76.98
34241;BME280;20503;50.200;19.508;2023-03-20T11:41:54;101620.13;;;13.45;78.00
34241;BME280;20503;50.200;19.508;2023-03-20T11:47:05;101604.37;;;13.86;77.94
34241;BME280;20503;50.200;19.508;2023-03-20T11:52:13;101599.77;;;14.26;74.61
34241;BME280;20503;50.200;19.508;2023-03-20T12:02:28;101607.55;;;14.03;74.39
34241;BME280;20503;50.200;19.508;2023-03-20T12:07:32;101590.40;;;14.14;74.58
34241;BME280;20503;50.200;19.508;2023-03-20T13:18:15;101577.88;;;14.57;70.97
34241;BME280;20503;50.200;19.508;2023-03-20T13:39:05;101574.00;;;13.47;76.31
34241;BME280;20503;50.200;19.508;2023-03-20T13:44:09;101564.49;;;13.50;76.27
34241;BME280;20503;50.200;19.508;2023-03-20T13:54:36;101569.44;;;13.08;79.30
34241;BME280;20503;50.200;19.508;2023-03-20T14:05:01;101574.93;;;13.08;79.01
34241;BME280;20503;50.200;19.508;2023-03-20T14:15:18;101568.48;;;13.34;78.12
34241;BME280;20503;50.200;19.508;2023-03-20T14:25:38;101568.48;;;13.34;78.16
34241;BME280;20503;50.200;19.508;2023-03-20T14:30:48;101582.19;;;13.21;77.80
34241;BME280;20503;50.200;19.508;2023-03-20T14:51:40;101578.75;;;12.73;81.43
34241;BME280;20503;50.200;19.508;2023-03-20T14:56:44;101573.95;;;12.47;87.43
34241;BME280;20503;50.200;19.508;2023-03-20T15:01:57;101574.48;;;12.36;91.22
34241;BME280;20503;50.200;19.508;2023-03-20T15:12:03;101564.32;;;12.30;91.47
34241;BME280;20503;50.200;19.508;2023-03-20T15:17:05;101565.32;;;12.23;91.73
34241;BME280;20503;50.200;19.508;2023-03-20T15:22:16;101567.25;;;12.29;90.72
34241;BME280;20503;50.200;19.508;2023-03-20T15:27:19;101565.32;;;12.23;95.94
34241;BME280;20503;50.200;19.508;2023-03-20T15:32:21;101562.13;;;12.19;100.00
34241;BME280;20503;50.200;19.508;2023-03-20T15:37:24;101559.55;;;12.11;100.00
34241;BME280;20503;50.200;19.508;2023-03-20T15:42:26;101552.30;;;12.04;100.00
34241;BME280;20503;50.200;19.508;2023-03-20T15:47:33;101555.88;;;12.04;100.00
34241;BME280;20503;50.200;19.508;2023-03-20T15:52:45;101563.01;;;11.99;100.00
34241;BME280;20503;50.200;19.508;2023-03-20T15:57:56;101573.91;;;11.92;100.00
34241;BME280;20503;50.200;19.508;2023-03-20T16:03:01;101564.91;;;11.77;100.00
34241;BME280;20503;50.200;19.508;2023-03-20T16:08:13;101574.27;;;11.62;100.00
34241;BME280;20503;50.200;19.508;2023-03-20T16:13:15;101560.31;;;11.57;100.00
34241;BME280;20503;50.200;19.508;2023-03-20T16:18:19;101563.78;;;11.51;100.00
34241;BME280;20503;50.200;19.508;2023-03-20T16:23:32;101569.01;;;11.46;100.00
34241;BME280;20503;50.200;19.508;2023-03-20T16:28:36;101550.46;;;11.48;100.00
34241;BME280;20503;50.200;19.508;2023-03-20T16:33:39;101544.91;;;11.41;100.00
34241;BME280;20503;50.200;19.508;2023-03-20T16:43:54;101547.96;;;11.11;100.00
34241;BME280;20503;50.200;19.508;2023-03-20T16:49:11;101553.10;;;11.00;100.00
34241;BME280;20503;50.200;19.508;2023-03-20T16:54:04;101551.49;;;10.91;100.00
34241;BME280;20503;50.200;19.508;2023-03-20T16:59:15;101560.96;;;10.74;100.00
34241;BME280;20503;50.200;19.508;2023-03-20T17:04:23;101567.75;;;10.78;100.00
34241;BME280;20503;50.200;19.508;2023-03-20T17:09:29;101561.83;;;10.74;100.00
34241;BME280;20503;50.200;19.508;2023-03-20T17:14:31;101577.68;;;10.64;100.00
34241;BME280;20503;50.200;19.508;2023-03-20T17:19:34;101575.51;;;10.60;100.00
34241;BME280;20503;50.200;19.508;2023-03-20T17:24:35;101580.60;;;10.48;100.00
34241;BME280;20503;50.200;19.508;2023-03-20T17:29:37;101578.42;;;10.29;100.00
34241;BME280;20503;50.200;19.508;2023-03-20T17:34:39;101576.72;;;10.14;100.00
34241;BME280;20503;50.200;19.508;2023-03-20T17:39:42;101572.17;;;10.06;100.00
34241;BME280;20503;50.200;19.508;2023-03-20T17:44:44;101578.48;;;9.84;100.00
34241;BME280;20503;50.200;19.508;2023-03-20T17:49:47;101573.81;;;9.70;100.00
34241;BME280;20503;50.200;19.508;2023-03-20T17:54:48;101579.86;;;9.43;100.00
34241;BME280;20503;50.200;19.508;2023-03-20T17:59:51;101583.76;;;9.19;100.00
34241;BME280;20503;50.200;19.508;2023-03-20T18:04:52;101593.57;;;9.05;100.00
34241;BME280;20503;50.200;19.508;2023-03-20T18:09:53;101583.77;;;8.88;100.00
34241;BME280;20503;50.200;19.508;2023-03-20T18:14:55;101585.90;;;8.70;100.00
34241;BME280;20503;50.200;19.508;2023-03-20T18:19:58;101595.69;;;8.57;100.00
34241;BME280;20503;50.200;19.508;2023-03-20T18:24:59;101590.91;;;8.51;100.00
34241;BME280;20503;50.200;19.508;2023-03-20T18:30:00;101588.38;;;8.41;100.00
34241;BME280;20503;50.200;19.508;2023-03-20T18:35:01;101594.19;;;8.38;100.00
34241;BME280;20503;50.200;19.508;2023-03-20T18:40:03;101596.40;;;8.43;100.00
34241;BME280;20503;50.200;19.508;2023-03-20T18:45:09;101600.63;;;8.45;100.00
34241;BME280;20503;50.200;19.508;2023-03-20T18:55:26;101593.63;;;8.59;100.00
34241;BME280;20503;50.200;19.508;2023-03-20T19:00:33;101594.96;;;8.63;100.00
34241;BME280;20503;50.200;19.508;2023-03-20T19:05:37;101594.66;;;8.58;100.00
34241;BME280;20503;50.200;19.508;2023-03-20T19:10:40;101595.80;;;8.63;100.00
34241;BME280;20503;50.200;19.508;2023-03-20T19:15:45;101596.30;;;8.67;100.00
34241;BME280;20503;50.200;19.508;2023-03-20T19:20:48;101597.99;;;8.76;100.00
34241;BME280;20503;50.200;19.508;2023-03-20T19:25:52;101593.20;;;8.78;100.00
34241;BME280;20503;50.200;19.508;2023-03-20T19:30:55;101592.54;;;8.68;100.00
34241;BME280;20503;50.200;19.508;2023-03-20T19:36:32;101602.73;;;8.82;100.00
34241;BME280;20503;50.200;19.508;2023-03-20T19:41:17;101605.60;;;8.88;100.00
34241;BME280;20503;50.200;19.508;2023-03-20T19:46:28;101596.08;;;8.84;100.00
34241;BME280;20503;50.200;19.508;2023-03-20T19:51:39;101585.83;;;8.86;100.00
